Time;durP1;ratioP1;P1;durP2;ratioP2;P2;SDS_P1;SDS_P2;PMS_P1;PMS_P2;Temp;Humidity;BMP_temperature;BMP_pressure;BME280_temperature;BME280_humidity;BME280_pressure;Samples;Min_cycle;Max_cycle;Signal;HPM_P1;HPM_P2
2023/09/15 00:01:39;;;;;;;9.23;4.93;;;12.70;92.00;;;;;;5032426;28;20055;-75
2023/09/15 00:04:06;;;;;;;8.00;5.10;;;12.60;92.10;;;;;;5064042;28;20053;-77
2023/09/15 00:06:36;;;;;;;8.25;5.20;;;12.60;92.20;;;;;;5046553;28;20068;-76
2023/09/15 00:09:06;;;;;;;10.20;5.10;;;12.60;92.40;;;;;;5028247;28;20049;-76
2023/09/15 00:11:42;;;;;;;7.80;4.63;;;12.60;92.50;;;;;;5047179;28;20079;-76
2023/09/15 00:14:13;;;;;;;6.18;4.93;;;12.50;92.60;;;;;;5051907;28;20070;-76
2023/09/15 00:16:42;;;;;;;9.60;5.03;;;12.50;92.60;;;;;;5055003;28;20044;-76
2023/09/15 00:19:13;;;;;;;8.48;4.97;;;12.40;92.70;;;;;;5056871;28;20130;-77
2023/09/15 00:21:40;;;;;;;9.02;4.60;;;12.40;92.80;;;;;;5032816;28;20056;-76
2023/09/15 00:24:06;;;;;;;7.95;5.15;;;12.40;93.00;;;;;;5030323;28;20459;-75
2023/09/15 00:26:33;;;;;;;8.52;4.93;;;12.40;93.00;;;;;;5068206;28;20098;-75
2023/09/15 00:29:00;;;;;;;11.48;5.22;;;12.40;93.10;;;;;;5069753;28;20098;-76
2023/09/15 00:31:26;;;;;;;8.98;4.88;;;12.40;93.20;;;;;;5052551;28;20044;-76
2023/09/15 00:33:52;;;;;;;7.15;5.00;;;12.40;93.20;;;;;;5054030;28;20044;-76
2023/09/15 00:36:18;;;;;;;11.38;5.40;;;12.40;93.20;;;;;;5069362;28;20040;-75
2023/09/15 00:38:46;;;;;;;8.82;5.20;;;12.50;93.20;;;;;;5051871;28;20088;-76
2023/09/15 00:41:14;;;;;;;8.65;5.00;;;12.50;93.20;;;;;;5073095;28;20075;-76
2023/09/15 00:43:40;;;;;;;7.53;4.93;;;12.50;93.20;;;;;;5052682;28;20052;-77
2023/09/15 00:46:08;;;;;;;10.40;5.18;;;12.50;93.20;;;;;;5053709;28;20113;-76
2023/09/15 00:48:35;;;;;;;7.38;4.90;;;12.50;93.30;;;;;;5035603;28;20044;-76
2023/09/15 00:51:06;;;;;;;11.32;5.43;;;12.50;93.30;;;;;;5052839;28;20063;-76
2023/09/15 00:53:35;;;;;;;10.35;5.00;;;12.50;93.20;;;;;;5049051;28;20063;-76
2023/09/15 00:56:03;;;;;;;11.35;5.47;;;12.50;93.30;;;;;;5050844;28;20100;-76
2023/09/15 00:58:31;;;;;;;9.93;5.40;;;12.50;93.40;;;;;;5050117;28;20044;-76
2023/09/15 01:00:57;;;;;;;10.50;5.30;;;12.50;93.40;;;;;;5037546;28;20052;-76
2023/09/15 01:03:24;;;;;;;8.93;5.25;;;12.50;93.40;;;;;;5051140;28;20078;-75
2023/09/15 01:05:51;;;;;;;11.98;5.30;;;12.50;93.50;;;;;;5066224;28;20580;-76
2023/09/15 01:08:19;;;;;;;8.10;4.82;;;12.50;93.50;;;;;;5052686;28;20046;-75
2023/09/15 01:10:45;;;;;;;9.27;4.75;;;12.40;93.60;;;;;;5068122;28;20048;-75
2023/09/15 01:13:11;;;;;;;6.13;4.38;;;12.40;93.70;;;;;;5053949;28;20101;-76
2023/09/15 01:15:51;;;;;;;9.43;4.55;;;12.40;93.80;;;;;;5066433;28;20053;-76
2023/09/15 01:18:26;;;;;;;7.38;4.53;;;12.40;94.00;;;;;;5060683;28;20044;-76
2023/09/15 01:20:55;;;;;;;10.15;4.97;;;12.30;94.00;;;;;;5055169;28;20052;-76
2023/09/15 01:23:52;;;;;;;8.52;4.68;;;12.30;94.10;;;;;;5030572;28;20503;-76
2023/09/15 01:27:03;;;;;;;10.02;5.30;;;12.30;94.20;;;;;;5044819;28;20041;-75
2023/09/15 01:29:39;;;;;;;7.25;4.88;;;12.20;94.30;;;;;;5028760;28;20075;-75
2023/09/15 01:32:10;;;;;;;7.75;4.93;;;12.20;94.20;;;;;;5048854;28;20044;-74
2023/09/15 01:34:37;;;;;;;7.70;4.90;;;12.20;94.20;;;;;;5045564;28;20348;-77
2023/09/15 01:37:03;;;;;;;12.25;4.63;;;12.10;94.20;;;;;;5027120;28;20048;-76
2023/09/15 01:39:30;;;;;;;10.40;4.82;;;12.10;94.30;;;;;;5051651;28;20043;-76
2023/09/15 01:41:58;;;;;;;11.48;5.57;;;12.10;94.40;;;;;;5036167;28;20735;-74
2023/09/15 01:44:24;;;;;;;10.40;5.05;;;12.00;94.50;;;;;;5053297;28;20085;-76
2023/09/15 01:46:50;;;;;;;8.25;5.05;;;12.00;94.60;;;;;;5053044;28;20051;-75
2023/09/15 01:49:18;;;;;;;8.43;4.60;;;12.00;94.70;;;;;;5037620;28;20060;-76
2023/09/15 01:51:45;;;;;;;9.25;4.30;;;12.00;94.80;;;;;;5050034;28;20067;-75
2023/09/15 01:54:12;;;;;;;9.98;4.93;;;11.90;94.80;;;;;;5047834;28;20510;-75
2023/09/15 01:56:37;;;;;;;8.48;4.90;;;12.00;94.90;;;;;;5048363;28;20075;-76
2023/09/15 01:59:03;;;;;;;9.30;4.78;;;11.90;94.80;;;;;;5035880;28;20083;-76
2023/09/15 02:01:29;;;;;;;7.18;4.45;;;11.90;94.80;;;;;;5063275;28;20072;-75
2023/09/15 02:03:56;;;;;;;11.48;5.25;;;11.90;94.80;;;;;;5066225;28;20063;-75
2023/09/15 02:06:22;;;;;;;9.82;4.78;;;11.90;94.80;;;;;;5049446;28;20083;-76
2023/09/15 02:08:48;;;;;;;9.52;5.13;;;12.00;94.80;;;;;;4999943;28;20148;-75
2023/09/15 02:11:14;;;;;;;11.07;5.40;;;11.90;94.80;;;;;;5031528;28;20126;-74
2023/09/15 02:13:42;;;;;;;11.15;5.32;;;11.90;94.90;;;;;;5026170;28;20134;-75
2023/09/15 02:16:08;;;;;;;8.88;5.05;;;11.90;95.00;;;;;;5041810;28;20130;-75
2023/09/15 02:18:34;;;;;;;7.95;5.10;;;11.90;95.00;;;;;;5044204;28;20094;-75
2023/09/15 02:21:00;;;;;;;8.77;4.90;;;11.90;95.10;;;;;;5015216;28;20052;-75
2023/09/15 02:23:26;;;;;;;7.03;4.25;;;11.90;95.10;;;;;;5029286;28;20202;-75
2023/09/15 02:25:52;;;;;;;7.22;4.88;;;11.90;95.10;;;;;;5044841;28;20123;-76
2023/09/15 02:28:21;;;;;;;7.53;4.90;;;11.90;95.00;;;;;;5045061;28;20135;-77
2023/09/15 02:30:47;;;;;;;7.63;4.60;;;11.80;95.00;;;;;;5047430;28;20056;-76
2023/09/15 02:33:13;;;;;;;8.63;5.32;;;11.70;95.10;;;;;;5064784;28;20049;-76
2023/09/15 02:35:39;;;;;;;8.32;4.55;;;11.70;95.20;;;;;;5045136;28;20045;-76
2023/09/15 02:38:06;;;;;;;9.73;5.07;;;11.70;95.40;;;;;;5044307;28;20051;-75
2023/09/15 02:40:31;;;;;;;8.38;4.85;;;11.60;95.40;;;;;;5016377;28;20482;-76
2023/09/15 02:42:57;;;;;;;11.50;5.53;;;11.60;95.50;;;;;;5048693;28;20051;-76
2023/09/15 02:45:23;;;;;;;10.40;4.95;;;11.60;95.60;;;;;;5066139;28;20055;-76
2023/09/15 02:47:49;;;;;;;9.68;5.10;;;11.50;95.70;;;;;;5034954;28;20041;-76
2023/09/15 02:50:15;;;;;;;12.20;5.13;;;11.50;95.80;;;;;;5045233;28;20547;-76
2023/09/15 02:52:40;;;;;;;8.05;4.88;;;11.50;95.80;;;;;;5045188;28;20213;-76
2023/09/15 02:55:08;;;;;;;6.68;4.22;;;11.50;95.80;;;;;;5046962;28;20121;-76
2023/09/15 02:57:34;;;;;;;11.15;5.70;;;11.50;95.90;;;;;;5014126;28;20047;-76
2023/09/15 03:00:00;;;;;;;11.10;5.30;;;11.50;96.00;;;;;;5048322;28;20577;-76
2023/09/15 03:02:25;;;;;;;6.90;4.97;;;11.50;96.00;;;;;;5066684;28;20127;-77
2023/09/15 03:04:51;;;;;;;8.60;5.25;;;11.50;96.10;;;;;;5021251;28;20056;-76
2023/09/15 03:07:17;;;;;;;9.45;5.00;;;11.50;96.10;;;;;;5035768;28;20135;-76
2023/09/15 03:09:44;;;;;;;9.73;5.45;;;11.50;96.10;;;;;;5064771;28;20093;-76
2023/09/15 03:12:10;;;;;;;8.45;4.95;;;11.50;96.10;;;;;;5056026;28;20047;-76
2023/09/15 03:14:36;;;;;;;8.93;4.97;;;11.40;96.10;;;;;;5054201;28;20102;-76
2023/09/15 03:17:03;;;;;;;8.80;4.78;;;11.40;96.10;;;;;;5070857;28;20062;-75
2023/09/15 03:19:29;;;;;;;12.07;5.22;;;11.40;96.10;;;;;;5056611;28;20069;-76
2023/09/15 03:21:55;;;;;;;9.40;4.80;;;11.40;96.20;;;;;;5071951;28;20052;-76
2023/09/15 03:24:20;;;;;;;10.43;5.28;;;11.30;96.30;;;;;;5054739;28;20050;-76
2023/09/15 03:26:48;;;;;;;15.13;5.72;;;11.30;96.30;;;;;;5038599;28;20127;-76
2023/09/15 03:29:14;;;;;;;10.23;4.95;;;11.30;96.30;;;;;;5048201;28;20070;-76
2023/09/15 03:31:41;;;;;;;7.78;4.88;;;11.30;96.40;;;;;;5034577;28;20113;-77
2023/09/15 03:34:06;;;;;;;8.85;5.20;;;11.30;96.40;;;;;;5071989;28;20053;-76
2023/09/15 03:36:32;;;;;;;7.93;4.90;;;11.30;96.40;;;;;;5059395;28;20337;-76
2023/09/15 03:38:59;;;;;;;10.23;5.22;;;11.30;96.40;;;;;;5036585;28;20079;-76
2023/09/15 03:41:27;;;;;;;7.25;5.10;;;11.20;96.50;;;;;;5055944;28;20048;-75
2023/09/15 03:43:55;;;;;;;8.93;5.97;;;11.20;96.50;;;;;;5021740;28;20143;-76
2023/09/15 03:46:21;;;;;;;8.30;4.65;;;11.20;96.50;;;;;;5020389;28;20086;-76
2023/09/15 03:48:47;;;;;;;11.85;5.53;;;11.10;96.50;;;;;;5051095;28;20166;-76
2023/09/15 03:51:13;;;;;;;9.52;5.35;;;11.10;96.60;;;;;;5053397;28;20040;-75
2023/09/15 03:53:39;;;;;;;12.80;6.03;;;11.10;96.90;;;;;;5032816;28;21046;-76
2023/09/15 03:56:05;;;;;;;10.30;5.00;;;11.10;96.70;;;;;;5055996;28;20051;-76
2023/09/15 03:58:32;;;;;;;7.95;5.30;;;11.00;96.70;;;;;;5068295;28;20057;-76
2023/09/15 04:00:57;;;;;;;7.78;5.15;;;11.00;96.80;;;;;;5032606;28;20463;-75
2023/09/15 04:03:24;;;;;;;8.73;5.15;;;11.00;96.80;;;;;;5053554;28;20054;-75
2023/09/15 04:05:51;;;;;;;8.77;5.07;;;11.00;96.80;;;;;;5067834;28;20043;-76
2023/09/15 04:08:17;;;;;;;8.15;4.95;;;11.00;96.90;;;;;;5066791;28;20495;-76
2023/09/15 04:10:42;;;;;;;6.82;5.18;;;11.00;96.90;;;;;;5029854;28;20063;-75
2023/09/15 04:13:08;;;;;;;7.65;5.13;;;10.90;97.00;;;;;;5047728;28;20089;-76
2023/09/15 04:15:34;;;;;;;7.55;5.13;;;10.90;97.00;;;;;;5033722;28;20051;-75
2023/09/15 04:18:00;;;;;;;7.82;5.18;;;10.80;97.10;;;;;;5035506;28;20098;-75
2023/09/15 04:20:26;;;;;;;9.30;5.32;;;10.80;97.20;;;;;;5040991;28;20056;-76
2023/09/15 04:22:51;;;;;;;10.25;5.68;;;10.70;97.20;;;;;;5032174;28;20536;-75
2023/09/15 04:25:19;;;;;;;10.05;5.35;;;10.70;97.20;;;;;;5066006;28;20260;-76
2023/09/15 04:27:46;;;;;;;9.75;4.97;;;10.40;97.20;;;;;;5049728;28;20052;-75
2023/09/15 04:30:12;;;;;;;8.70;5.45;;;10.70;97.30;;;;;;5068372;28;20467;-76
2023/09/15 04:32:38;;;;;;;10.38;5.32;;;10.70;97.30;;;;;;5034916;28;20040;-76
2023/09/15 04:35:05;;;;;;;10.50;5.00;;;10.70;97.30;;;;;;5048158;28;20040;-78
2023/09/15 04:37:31;;;;;;;9.95;5.00;;;10.60;97.30;;;;;;5047450;28;20700;-76
2023/09/15 04:39:58;;;;;;;7.35;5.32;;;10.60;97.40;;;;;;5048944;28;20077;-75
2023/09/15 04:42:24;;;;;;;7.50;5.32;;;10.60;97.40;;;;;;5033140;28;20051;-76
2023/09/15 04:44:56;;;;;;;8.48;5.80;;;10.50;97.50;;;;;;5048242;28;20052;-77
2023/09/15 04:47:42;;;;;;;8.52;5.65;;;10.50;97.50;;;;;;5063234;28;20037;-76
2023/09/15 04:50:08;;;;;;;9.10;5.30;;;10.50;97.60;;;;;;5052044;28;20052;-76
2023/09/15 04:52:34;;;;;;;8.75;5.60;;;10.50;97.50;;;;;;5046622;28;20090;-76
2023/09/15 04:55:00;;;;;;;6.70;5.03;;;10.50;97.60;;;;;;5048304;28;20058;-76
2023/09/15 04:57:26;;;;;;;7.93;5.97;;;10.50;97.60;;;;;;5008494;28;20629;-76
2023/09/15 04:59:55;;;;;;;10.68;5.72;;;10.50;97.60;;;;;;5046564;28;20045;-76
2023/09/15 05:02:24;;;;;;;12.02;5.90;;;10.40;97.60;;;;;;5033994;28;20164;-76
2023/09/15 05:04:52;;;;;;;9.52;5.05;;;10.40;97.70;;;;;;5049665;28;20391;-76
2023/09/15 05:07:18;;;;;;;7.78;5.68;;;10.40;97.60;;;;;;5051867;28;20497;-76
2023/09/15 05:09:45;;;;;;;9.23;5.20;;;10.40;97.70;;;;;;5010521;28;20066;-76
2023/09/15 05:12:11;;;;;;;11.25;5.78;;;10.40;97.70;;;;;;5047801;28;20049;-76
2023/09/15 05:14:40;;;;;;;10.45;6.03;;;10.40;97.70;;;;;;5064105;28;20207;-75
2023/09/15 05:17:06;;;;;;;11.40;5.80;;;10.40;97.70;;;;;;5047402;28;20055;-75
2023/09/15 05:19:32;;;;;;;7.65;5.40;;;10.40;97.80;;;;;;5063262;28;20681;-75
2023/09/15 05:22:01;;;;;;;8.38;5.20;;;10.40;97.80;;;;;;5061421;28;20507;-76
2023/09/15 05:24:27;;;;;;;7.07;5.00;;;10.40;97.80;;;;;;5045288;28;21230;-76
2023/09/15 05:26:53;;;;;;;9.85;6.22;;;10.40;97.80;;;;;;5015686;28;20037;-76
2023/09/15 05:29:19;;;;;;;10.63;5.70;;;10.40;97.80;;;;;;5021143;28;20044;-76
2023/09/15 05:31:44;;;;;;;10.43;5.78;;;10.40;98.10;;;;;;5047489;28;20040;-76
2023/09/15 05:34:10;;;;;;;23.38;7.10;;;10.40;97.90;;;;;;5068239;28;20075;-75
2023/09/15 05:36:36;;;;;;;17.60;7.22;;;10.40;97.90;;;;;;5066982;28;20950;-76
2023/09/15 05:39:02;;;;;;;10.00;6.28;;;10.40;98.00;;;;;;5035500;28;20762;-76
2023/09/15 05:41:28;;;;;;;11.30;5.78;;;10.40;98.00;;;;;;5031799;28;20046;-76
2023/09/15 05:43:54;;;;;;;12.55;5.90;;;10.40;97.90;;;;;;5048077;28;20053;-75
2023/09/15 05:46:20;;;;;;;7.60;6.13;;;10.40;97.90;;;;;;5049971;28;20091;-76
2023/09/15 05:48:45;;;;;;;6.95;5.35;;;10.40;98.00;;;;;;5065444;28;20075;-76
2023/09/15 05:51:11;;;;;;;8.77;5.97;;;10.40;97.90;;;;;;5025419;28;21464;-77
2023/09/15 05:53:37;;;;;;;10.90;5.90;;;10.40;97.90;;;;;;5048243;28;20316;-76
2023/09/15 05:56:03;;;;;;;9.10;5.82;;;10.50;98.00;;;;;;5065549;28;20135;-76
2023/09/15 05:58:29;;;;;;;8.43;5.65;;;10.50;98.00;;;;;;5031971;28;20147;-76
2023/09/15 06:00:56;;;;;;;10.45;5.88;;;10.50;98.00;;;;;;5047829;28;20108;-76
2023/09/15 06:03:28;;;;;;;8.10;5.90;;;10.50;98.00;;;;;;5028948;28;20059;-75
2023/09/15 06:05:53;;;;;;;8.00;5.30;;;10.60;98.10;;;;;;5038673;28;20048;-76
2023/09/15 06:08:19;;;;;;;13.25;6.15;;;10.60;98.00;;;;;;5047979;28;20041;-75
2023/09/15 06:10:47;;;;;;;6.88;5.53;;;10.60;98.00;;;;;;5044150;28;20388;-76
2023/09/15 06:13:13;;;;;;;9.75;5.68;;;10.60;98.00;;;;;;5049292;28;20043;-76
2023/09/15 06:15:38;;;;;;;11.77;5.80;;;10.70;98.00;;;;;;5030714;28;20049;-76
2023/09/15 06:18:04;;;;;;;11.88;5.72;;;10.70;98.00;;;;;;5063623;28;20048;-76
2023/09/15 06:20:31;;;;;;;8.45;5.90;;;10.80;98.00;;;;;;5046176;28;20041;-76
2023/09/15 06:23:01;;;;;;;16.88;7.30;;;10.80;98.00;;;;;;5042865;28;20048;-75
2023/09/15 06:25:27;;;;;;;13.18;6.63;;;10.80;98.10;;;;;;5046829;28;20127;-76
2023/09/15 06:27:52;;;;;;;10.27;5.72;;;10.90;98.00;;;;;;5041458;28;20050;-76
2023/09/15 06:30:18;;;;;;;11.05;5.88;;;10.90;98.00;;;;;;5022029;28;20053;-76
2023/09/15 06:32:44;;;;;;;7.57;5.05;;;11.00;98.00;;;;;;5034066;28;20633;-76
2023/09/15 06:35:13;;;;;;;9.50;5.60;;;11.10;98.00;;;;;;5031484;28;20438;-76
2023/09/15 06:37:42;;;;;;;9.73;6.30;;;11.10;98.00;;;;;;5026680;28;20057;-76
2023/09/15 06:40:10;;;;;;;10.32;5.72;;;11.20;98.10;;;;;;5043385;28;20048;-75
2023/09/15 06:42:36;;;;;;;9.60;6.03;;;11.20;98.10;;;;;;5019439;28;20044;-76
2023/09/15 06:45:03;;;;;;;10.35;6.30;;;11.30;98.10;;;;;;5048503;28;20039;-75
2023/09/15 06:47:30;;;;;;;9.05;5.13;;;11.40;98.20;;;;;;5031626;28;20067;-77
2023/09/15 06:49:56;;;;;;;7.75;5.50;;;11.40;98.10;;;;;;5048695;28;20047;-75
2023/09/15 06:52:22;;;;;;;12.30;6.57;;;11.50;98.10;;;;;;5048512;28;20061;-76
2023/09/15 06:54:47;;;;;;;10.18;6.13;;;11.60;98.20;;;;;;5042772;28;20516;-76
2023/09/15 06:57:13;;;;;;;8.80;5.75;;;11.70;98.30;;;;;;5024873;28;20101;-76
2023/09/15 06:59:42;;;;;;;9.20;6.43;;;11.80;98.30;;;;;;5066767;28;20040;-76
2023/09/15 07:02:08;;;;;;;8.80;5.88;;;11.80;98.30;;;;;;5051407;28;20069;-76
2023/09/15 07:04:37;;;;;;;11.80;6.80;;;11.90;98.30;;;;;;5045436;28;20040;-76
2023/09/15 07:07:03;;;;;;;9.70;6.18;;;12.10;98.40;;;;;;5049496;28;20559;-76
2023/09/15 07:09:28;;;;;;;9.02;5.70;;;12.10;98.30;;;;;;5020449;28;20037;-75
2023/09/15 07:11:54;;;;;;;11.52;6.15;;;12.20;98.30;;;;;;5051494;28;20331;-75
2023/09/15 07:14:20;;;;;;;9.95;5.95;;;12.40;98.40;;;;;;5044001;28;20037;-76
2023/09/15 07:16:46;;;;;;;11.43;5.55;;;12.50;98.30;;;;;;5047856;28;20052;-77
2023/09/15 07:19:12;;;;;;;10.77;5.85;;;12.50;98.30;;;;;;5050688;28;20104;-76
2023/09/15 07:21:40;;;;;;;8.88;5.97;;;12.70;98.30;;;;;;5068486;28;20040;-76
2023/09/15 07:24:09;;;;;;;8.20;5.53;;;12.80;98.20;;;;;;5048822;28;20059;-76
2023/09/15 07:26:35;;;;;;;11.35;6.13;;;13.00;98.10;;;;;;5049795;28;20564;-76
2023/09/15 07:29:01;;;;;;;11.82;5.93;;;13.20;98.00;;;;;;5066315;28;20052;-76
2023/09/15 07:31:27;;;;;;;9.50;5.25;;;13.40;98.00;;;;;;5049388;28;20044;-76
2023/09/15 07:33:53;;;;;;;10.90;5.70;;;13.60;97.70;;;;;;5049432;28;20063;-77
2023/09/15 07:36:19;;;;;;;11.88;5.25;;;13.80;97.50;;;;;;5028561;28;21383;-76
2023/09/15 07:38:46;;;;;;;9.85;5.82;;;13.30;97.20;;;;;;5038905;28;20076;-76
2023/09/15 07:41:13;;;;;;;9.43;4.45;;;14.20;97.10;;;;;;5027068;28;20059;-77
2023/09/15 07:43:39;;;;;;;9.75;4.93;;;14.40;96.70;;;;;;5043910;28;20617;-76
2023/09/15 07:46:05;;;;;;;10.10;5.40;;;14.60;96.40;;;;;;5027404;28;20558;-77
2023/09/15 07:48:31;;;;;;;6.30;4.28;;;14.90;96.00;;;;;;5027526;28;20082;-76
2023/09/15 07:50:57;;;;;;;8.48;5.10;;;15.00;95.40;;;;;;5029677;28;20044;-76
2023/09/15 07:53:23;;;;;;;8.63;4.57;;;15.30;95.10;;;;;;5064919;28;20044;-76
2023/09/15 07:55:49;;;;;;;8.00;4.55;;;15.50;94.60;;;;;;5066433;28;20040;-76
2023/09/15 07:58:20;;;;;;;9.65;4.53;;;15.70;94.20;;;;;;5054714;28;20059;-75
2023/09/15 08:00:46;;;;;;;9.20;4.63;;;16.00;93.70;;;;;;5044033;28;20040;-76
2023/09/15 08:03:12;;;;;;;7.78;4.10;;;16.20;93.00;;;;;;5056726;28;20646;-76
2023/09/15 08:05:39;;;;;;;9.57;4.30;;;16.40;92.40;;;;;;5034477;28;20403;-76
2023/09/15 08:08:05;;;;;;;6.93;4.00;;;16.60;91.80;;;;;;5033740;28;20544;-77
2023/09/15 08:10:37;;;;;;;6.30;4.30;;;16.80;91.30;;;;;;5035390;28;20059;-77
2023/09/15 08:13:02;;;;;;;7.60;5.00;;;17.00;90.70;;;;;;5053848;28;20045;-77
2023/09/15 08:15:28;;;;;;;7.18;4.18;;;17.20;90.10;;;;;;5048340;28;20380;-76
2023/09/15 08:17:54;;;;;;;8.55;4.25;;;17.40;88.40;;;;;;5049245;28;20130;-77
2023/09/15 08:20:20;;;;;;;6.85;3.72;;;17.60;87.10;;;;;;5032742;28;20470;-77
2023/09/15 08:22:46;;;;;;;7.15;4.05;;;17.80;85.70;;;;;;5068618;28;20128;-77
2023/09/15 08:25:12;;;;;;;8.60;4.28;;;18.10;84.10;;;;;;4994642;28;20049;-77
2023/09/15 08:27:38;;;;;;;6.88;3.97;;;18.30;82.00;;;;;;5049549;28;20040;-76
2023/09/15 08:30:05;;;;;;;7.53;4.15;;;18.50;79.90;;;;;;5027401;28;20104;-77
2023/09/15 08:32:34;;;;;;;7.47;4.13;;;18.60;77.70;;;;;;5009479;28;20773;-77
2023/09/15 08:34:59;;;;;;;5.75;3.85;;;18.90;76.00;;;;;;5007337;28;20040;-77
2023/09/15 08:37:26;;;;;;;7.13;3.90;;;19.10;74.30;;;;;;5044524;28;20350;-76
2023/09/15 08:39:59;;;;;;;6.47;3.47;;;19.40;72.50;;;;;;5033496;28;20051;-77
2023/09/15 08:42:29;;;;;;;7.20;3.47;;;19.60;70.50;;;;;;5052741;28;20050;-77
2023/09/15 08:44:56;;;;;;;6.70;2.97;;;19.80;67.10;;;;;;5065809;28;20170;-77
2023/09/15 08:47:24;;;;;;;7.70;3.80;;;20.00;65.00;;;;;;5050080;28;20173;-77
2023/09/15 08:49:52;;;;;;;7.07;3.38;;;20.20;63.00;;;;;;5016672;28;20171;-77
2023/09/15 08:52:18;;;;;;;6.38;3.30;;;20.40;59.60;;;;;;5047132;28;20491;-79
2023/09/15 08:54:45;;;;;;;5.97;3.38;;;20.50;56.60;;;;;;5014526;28;20091;-76
2023/09/15 08:57:12;;;;;;;6.03;3.10;;;20.60;52.50;;;;;;5034757;28;20062;-76
2023/09/15 08:59:39;;;;;;;6.00;3.40;;;20.80;49.80;;;;;;5057314;28;20051;-76
2023/09/15 09:02:07;;;;;;;6.32;2.95;;;21.10;47.90;;;;;;5053803;28;20055;-77
2023/09/15 09:04:32;;;;;;;5.90;3.00;;;21.20;43.80;;;;;;5050967;28;20182;-77
2023/09/15 09:07:00;;;;;;;5.60;3.50;;;21.40;41.00;;;;;;5047952;28;20078;-77
2023/09/15 09:09:26;;;;;;;5.88;3.22;;;21.60;37.30;;;;;;5038921;28;20051;-76
2023/09/15 09:11:52;;;;;;;6.95;3.35;;;21.80;29.80;;;;;;5034258;28;21035;-77
2023/09/15 09:14:18;;;;;;;5.32;3.30;;;21.90;27.30;;;;;;5049917;28;20150;-77
2023/09/15 09:16:44;;;;;;;5.50;2.88;;;22.10;23.20;;;;;;5048947;28;20087;-76
2023/09/15 09:19:10;;;;;;;5.63;2.75;;;22.30;18.90;;;;;;5052460;28;20505;-77
2023/09/15 09:21:36;;;;;;;5.80;2.80;;;22.60;13.10;;;;;;5066434;28;20831;-77
2023/09/15 09:24:09;;;;;;;5.25;2.95;;;22.80;5.40;;;;;;5041022;28;20730;-77
2023/09/15 09:26:35;;;;;;;5.95;2.95;;;22.90;1.00;;;;;;5045203;28;20041;-77
2023/09/15 09:29:02;;;;;;;4.82;2.67;;;23.00;1.00;;;;;;5065496;28;20055;-77
2023/09/15 09:31:29;;;;;;;6.40;3.00;;;23.20;1.00;;;;;;5022272;28;20052;-75
2023/09/15 09:33:56;;;;;;;5.28;2.53;;;23.30;1.00;;;;;;5065771;28;20403;-77
2023/09/15 09:36:22;;;;;;;5.97;3.20;;;23.50;1.00;;;;;;5035968;28;20083;-77
2023/09/15 09:38:49;;;;;;;4.80;2.92;;;23.50;1.00;;;;;;5065428;28;20293;-77
2023/09/15 09:41:20;;;;;;;7.05;2.92;;;23.70;1.00;;;;;;5050330;28;20597;-78
2023/09/15 09:43:47;;;;;;;5.70;3.03;;;23.90;1.00;;;;;;5049921;28;20083;-77
2023/09/15 09:46:18;;;;;;;5.50;2.40;;;23.80;1.00;;;;;;5032346;28;20160;-77
2023/09/15 09:48:44;;;;;;;4.50;2.70;;;23.70;1.00;;;;;;5051791;28;20476;-77
2023/09/15 09:51:13;;;;;;;6.25;2.58;;;23.70;1.00;;;;;;5065551;28;20526;-77
2023/09/15 09:53:40;;;;;;;7.10;2.70;;;23.90;1.00;;;;;;5044910;28;20052;-77
2023/09/15 09:56:06;;;;;;;5.30;2.72;;;24.00;1.00;;;;;;5044709;28;20564;-77
2023/09/15 09:58:33;;;;;;;5.75;2.85;;;24.10;1.00;;;;;;5051808;28;20059;-77
2023/09/15 10:00:59;;;;;;;6.00;2.58;;;24.30;1.00;;;;;;5021873;28;20408;-77
2023/09/15 10:03:25;;;;;;;5.15;2.55;;;24.30;1.00;;;;;;5045102;28;20044;-77
2023/09/15 10:05:52;;;;;;;5.45;2.70;;;24.40;1.00;;;;;;5046884;28;20051;-77
2023/09/15 10:08:18;;;;;;;5.72;3.08;;;24.50;99.90;;;;;;5030333;28;20044;-77
2023/09/15 10:10:45;;;;;;;4.45;2.80;;;24.60;99.90;;;;;;5043180;28;20049;-77
2023/09/15 10:13:13;;;;;;;6.45;3.60;;;24.70;99.90;;;;;;5047423;28;20048;-77
2023/09/15 10:15:43;;;;;;;5.85;3.20;;;24.90;99.90;;;;;;5050499;28;20045;-77
2023/09/15 10:18:15;;;;;;;6.45;3.38;;;24.90;99.90;;;;;;5019326;28;20523;-77
2023/09/15 10:20:47;;;;;;;7.72;4.00;;;24.80;99.90;;;;;;5026454;28;20569;-77
2023/09/15 10:23:13;;;;;;;5.60;3.50;;;24.90;1.00;;;;;;5026949;28;20467;-77
2023/09/15 10:25:50;;;;;;;5.43;3.38;;;24.90;1.00;;;;;;5046832;28;20710;-77
2023/09/15 10:28:19;;;;;;;7.13;4.15;;;25.00;1.00;;;;;;5048058;28;20064;-77
2023/09/15 10:30:46;;;;;;;6.50;3.70;;;25.10;99.90;;;;;;5043211;28;20063;-77
2023/09/15 10:33:12;;;;;;;8.27;3.70;;;25.10;99.90;;;;;;5059880;28;20047;-77
2023/09/15 10:35:45;;;;;;;5.55;4.10;;;25.20;1.00;;;;;;5038079;28;20391;-78
2023/09/15 10:38:11;;;;;;;5.75;3.30;;;25.40;99.90;;;;;;5023135;28;20148;-77
2023/09/15 10:40:46;;;;;;;6.45;3.65;;;25.40;1.00;;;;;;5030576;28;20040;-78
2023/09/15 10:43:13;;;;;;;6.03;3.63;;;25.60;99.90;;;;;;5024014;28;20054;-77
2023/09/15 10:45:39;;;;;;;5.85;3.70;;;25.70;99.90;;;;;;5039269;28;20125;-78
2023/09/15 10:48:07;;;;;;;6.50;4.03;;;25.90;99.90;;;;;;5031466;28;20044;-77
2023/09/15 10:50:35;;;;;;;6.57;3.95;;;25.90;1.00;;;;;;5034537;28;20054;-77
2023/09/15 10:53:10;;;;;;;6.20;3.95;;;26.20;99.90;;;;;;5013082;28;20046;-77
2023/09/15 10:55:38;;;;;;;6.85;4.22;;;26.20;34.50;;;;;;5063079;28;20048;-77
2023/09/15 10:58:05;;;;;;;5.00;3.13;;;26.40;99.90;;;;;;5008646;28;20051;-77
2023/09/15 11:00:32;;;;;;;6.25;3.88;;;26.60;1.00;;;;;;5021673;28;20056;-78
2023/09/15 11:02:58;;;;;;;7.88;4.10;;;26.80;1.00;;;;;;5045561;28;20047;-77
2023/09/15 11:05:30;;;;;;;6.13;3.70;;;27.00;99.90;;;;;;5020992;28;20580;-78
2023/09/15 11:07:57;;;;;;;6.85;3.97;;;27.10;99.90;;;;;;5050171;28;20387;-78
2023/09/15 11:10:34;;;;;;;6.88;3.70;;;27.10;99.90;;;;;;5047217;28;20100;-78
2023/09/15 11:13:01;;;;;;;7.93;4.10;;;27.30;99.60;;;;;;5014795;28;20055;-78
2023/09/15 11:15:28;;;;;;;8.98;4.05;;;27.20;1.00;;;;;;5037088;28;20079;-76
2023/09/15 11:17:54;;;;;;;6.78;3.88;;;27.10;99.90;;;;;;5011391;28;20055;-77
2023/09/15 11:20:21;;;;;;;8.32;4.05;;;27.20;99.90;;;;;;5012391;28;20056;-76
2023/09/15 11:22:47;;;;;;;5.75;3.40;;;27.20;99.90;;;;;;5013759;28;20139;-77
2023/09/15 11:25:15;;;;;;;6.43;3.15;;;27.30;99.90;;;;;;5045396;28;20154;-77
2023/09/15 11:27:41;;;;;;;7.05;3.17;;;27.30;1.00;;;;;;5062571;28;20053;-77
2023/09/15 11:30:08;;;;;;;6.95;3.60;;;27.40;9.10;;;;;;5049668;28;20126;-78
2023/09/15 11:32:37;;;;;;;8.68;4.10;;;27.40;1.00;;;;;;5048889;28;20064;-77
2023/09/15 11:35:05;;;;;;;6.47;4.03;;;27.60;1.00;;;;;;5053164;28;20101;-78
2023/09/15 11:37:34;;;;;;;6.68;4.18;;;27.50;99.90;;;;;;5033925;28;20118;-76
2023/09/15 11:40:00;;;;;;;6.07;3.63;;;27.40;99.90;;;;;;5055157;28;20461;-77
2023/09/15 11:42:26;;;;;;;6.22;3.65;;;27.50;99.90;;;;;;5042759;28;20037;-77
2023/09/15 11:44:52;;;;;;;7.20;3.33;;;27.80;99.90;;;;;;5041665;28;20041;-77
2023/09/15 11:47:19;;;;;;;5.72;3.60;;;28.10;99.90;;;;;;5065516;28;20048;-77
2023/09/15 11:49:45;;;;;;;5.20;3.40;;;28.10;99.90;;;;;;5046343;28;20052;-78
2023/09/15 11:52:11;;;;;;;8.13;3.78;;;28.10;99.90;;;;;;5047527;28;20130;-77
2023/09/15 11:54:37;;;;;;;5.68;3.47;;;28.10;99.90;;;;;;5032304;28;20048;-78
2023/09/15 11:57:03;;;;;;;6.35;3.78;;;28.10;99.90;;;;;;5050001;28;20498;-77
2023/09/15 11:59:38;;;;;;;8.23;4.43;;;28.10;99.90;;;;;;5067580;28;20502;-77
2023/09/15 12:02:05;;;;;;;6.07;3.85;;;28.10;99.90;;;;;;5043367;28;20216;-78
2023/09/15 12:04:35;;;;;;;7.18;3.95;;;28.20;99.90;;;;;;5049536;28;20048;-77
2023/09/15 12:07:01;;;;;;;6.28;3.70;;;28.50;99.90;;;;;;5028049;28;20049;-77
2023/09/15 12:09:27;;;;;;;9.30;3.92;;;28.60;99.90;;;;;;5051457;28;20237;-77
2023/09/15 12:11:53;;;;;;;6.25;3.90;;;28.60;99.90;;;;;;5026637;28;20049;-77
2023/09/15 12:14:19;;;;;;;9.93;3.85;;;28.60;99.90;;;;;;5052193;28;20067;-76
2023/09/15 12:16:46;;;;;;;5.43;3.53;;;28.70;84.70;;;;;;5066802;28;20068;-77
2023/09/15 12:19:15;;;;;;;6.45;3.35;;;29.00;72.20;;;;;;5046678;28;20120;-77
2023/09/15 12:21:54;;;;;;;6.03;3.88;;;29.20;28.60;;;;;;5027186;28;20055;-77
2023/09/15 12:24:23;;;;;;;6.55;3.70;;;29.40;53.10;;;;;;5050743;28;20079;-74
2023/09/15 12:26:50;;;;;;;5.93;3.88;;;29.60;29.70;;;;;;5051834;28;20079;-78
2023/09/15 12:29:16;;;;;;;6.63;3.65;;;29.90;16.30;;;;;;5070624;28;20048;-77
2023/09/15 12:31:45;;;;;;;7.32;4.10;;;30.10;1.00;;;;;;5030946;28;20051;-76
2023/09/15 12:34:19;;;;;;;6.00;3.60;;;30.30;1.00;;;;;;5024682;28;20067;-77
2023/09/15 12:36:47;;;;;;;5.28;3.50;;;30.20;1.00;;;;;;5067145;28;20048;-77
2023/09/15 12:39:13;;;;;;;7.40;4.20;;;30.30;1.00;;;;;;5053346;28;20510;-78
2023/09/15 12:41:39;;;;;;;6.35;4.10;;;30.40;1.00;;;;;;5051433;28;20051;-78
2023/09/15 12:44:05;;;;;;;5.95;3.38;;;30.40;1.00;;;;;;5064200;28;20048;-78
2023/09/15 12:46:32;;;;;;;7.65;4.05;;;30.30;1.00;;;;;;5054289;28;20127;-77